Time;durP1;ratioP1;P1;durP2;ratioP2;P2;SDS_P1;SDS_P2;PMS_P1;PMS_P2;Temp;Humidity;BMP_temperature;BMP_pressure;BME280_temperature;BME280_humidity;BME280_pressure;Samples;Min_cycle;Max_cycle;Signal;HPM_P1;HPM_P2
2023/02/22 00:06:38;;;;;;;1.20;1.10;;;;;;;5.79;100.00;98902.72;30852490;28;20055;-77
2023/02/22 00:21:40;;;;;;;0.80;0.80;;;;;;;5.40;100.00;98894.63;30850695;28;20058;-76
2023/02/22 00:36:48;;;;;;;1.83;1.30;;;;;;;5.19;100.00;98908.47;30838822;28;20047;-75
2023/02/22 00:51:50;;;;;;;3.60;1.57;;;;;;;4.78;100.00;98922.91;30846308;28;20059;-75
2023/02/22 01:06:52;;;;;;;5.90;1.50;;;;;;;4.76;100.00;98946.75;30855761;28;20489;-75
2023/02/22 01:21:54;;;;;;;1.63;1.40;;;;;;;5.14;100.00;98950.81;30828696;28;20460;-75
2023/02/22 01:36:57;;;;;;;2.53;1.40;;;;;;;5.30;100.00;98973.59;30837238;28;20051;-75
2023/02/22 01:52:02;;;;;;;2.37;1.50;;;;;;;5.26;100.00;98983.66;30843923;28;20118;-75
2023/02/22 02:07:07;;;;;;;1.90;1.60;;;;;;;5.07;100.00;98996.63;30832580;28;20564;-76
2023/02/22 02:22:16;;;;;;;2.10;1.90;;;;;;;4.79;100.00;99034.69;30852025;28;20150;-76
2023/02/22 02:37:53;;;;;;;2.60;2.00;;;;;;;4.83;100.00;99051.53;30828684;28;20050;-75
2023/02/22 02:53:00;;;;;;;3.07;2.20;;;;;;;4.42;100.00;99111.56;30835401;28;20058;-76
2023/02/22 03:08:26;;;;;;;2.37;1.80;;;;;;;3.87;100.00;99124.34;30840171;28;20285;-76
2023/02/22 03:23:44;;;;;;;4.43;2.73;;;;;;;3.87;100.00;99162.69;30833250;28;20063;-74
2023/02/22 03:38:48;;;;;;;2.33;1.90;;;;;;;3.86;100.00;99198.00;30824895;28;20051;-76
2023/02/22 03:53:51;;;;;;;7.93;2.40;;;;;;;3.85;100.00;99220.63;30851932;28;20055;-75
2023/02/22 04:08:52;;;;;;;3.93;2.37;;;;;;;3.86;100.00;99251.69;30845720;28;20058;-75
2023/02/22 04:23:54;;;;;;;4.60;2.77;;;;;;;3.89;100.00;99309.97;30856180;28;20059;-77
2023/02/22 04:38:58;;;;;;;5.73;3.97;;;;;;;3.86;100.00;99353.72;30852152;28;20055;-76
2023/02/22 04:54:00;;;;;;;9.30;5.73;;;;;;;3.64;100.00;99380.66;30861777;28;20063;-76
2023/02/22 05:09:02;;;;;;;11.57;5.87;;;;;;;3.69;100.00;99409.78;30855687;28;20047;-75
2023/02/22 05:24:04;;;;;;;10.33;5.87;;;;;;;3.75;100.00;99445.81;30850397;28;20067;-78
2023/02/22 05:39:06;;;;;;;11.77;5.13;;;;;;;3.63;100.00;99494.53;30832836;28;20444;-77
2023/02/22 05:54:08;;;;;;;10.23;4.70;;;;;;;3.95;100.00;99540.13;30851753;28;20137;-75
2023/02/22 06:09:09;;;;;;;12.93;5.47;;;;;;;4.05;100.00;99555.44;30842607;28;20046;-76
2023/02/22 06:24:12;;;;;;;9.47;5.17;;;;;;;4.18;100.00;99585.38;30830287;28;20054;-75
2023/02/22 06:39:15;;;;;;;8.63;4.37;;;;;;;4.78;100.00;99614.72;30826017;28;20043;-77
2023/02/22 06:54:17;;;;;;;10.97;5.30;;;;;;;4.61;100.00;99655.13;30842829;28;20063;-76
2023/02/22 07:09:19;;;;;;;8.87;4.97;;;;;;;4.58;100.00;99680.09;30830125;28;20049;-75
2023/02/22 07:24:21;;;;;;;9.87;5.70;;;;;;;4.38;100.00;99701.25;30815695;28;20110;-76
2023/02/22 07:39:23;;;;;;;14.57;5.60;;;;;;;4.55;100.00;99715.81;30862734;28;20082;-76
2023/02/22 07:54:24;;;;;;;7.60;4.17;;;;;;;4.45;100.00;99723.53;30863085;28;20062;-76
2023/02/22 08:09:26;;;;;;;11.17;3.83;;;;;;;4.61;100.00;99741.16;30837720;28;20047;-77
2023/02/22 08:24:28;;;;;;;6.07;4.10;;;;;;;4.08;100.00;99768.81;30862775;28;20512;-78
2023/02/22 08:39:30;;;;;;;8.73;4.53;;;;;;;4.13;100.00;99778.41;30856901;28;20098;-78
2023/02/22 08:54:32;;;;;;;9.60;4.63;;;;;;;4.59;100.00;99802.63;30820417;28;20551;-76
2023/02/22 09:09:34;;;;;;;7.17;4.00;;;;;;;4.90;100.00;99807.22;30832360;28;20054;-78
2023/02/22 09:24:36;;;;;;;9.13;4.80;;;;;;;4.82;100.00;99816.44;30851673;28;20141;-79
2023/02/22 09:39:38;;;;;;;9.70;4.07;;;;;;;4.21;100.00;99837.16;30835806;28;20571;-76
2023/02/22 09:54:45;;;;;;;8.17;4.33;;;;;;;5.53;100.00;99842.41;30835253;28;20580;-82
2023/02/22 10:09:49;;;;;;;8.60;4.40;;;;;;;7.13;100.00;99826.72;30835266;28;20055;-78
2023/02/22 10:25:11;;;;;;;10.67;5.07;;;;;;;5.75;100.00;99836.56;30827854;28;20113;-77
2023/02/22 10:40:22;;;;;;;10.77;5.47;;;;;;;5.71;100.00;99845.81;30821896;28;20054;-76
2023/02/22 10:55:24;;;;;;;9.37;3.90;;;;;;;5.34;100.00;99862.47;30831073;28;20082;-77
2023/02/22 11:10:31;;;;;;;9.77;4.43;;;;;;;5.47;100.00;99872.44;30885010;28;20054;-77
2023/02/22 11:25:36;;;;;;;6.33;4.03;;;;;;;5.97;97.25;99876.88;30882411;28;20051;-77
2023/02/22 11:40:39;;;;;;;7.73;4.50;;;;;;;5.22;100.00;99895.16;30864849;28;20046;-77
2023/02/22 11:56:08;;;;;;;7.77;4.60;;;;;;;5.11;100.00;99898.66;30862076;28;20130;-77
2023/02/22 12:11:19;;;;;;;9.10;4.77;;;;;;;4.78;100.00;99917.84;30869048;28;20051;-73
2023/02/22 12:26:32;;;;;;;12.97;6.90;;;;;;;4.66;100.00;99926.31;30853431;28;20563;-77
2023/02/22 12:41:47;;;;;;;11.77;5.80;;;;;;;6.02;100.00;99943.84;30844430;28;20065;-80
2023/02/22 12:57:04;;;;;;;14.17;6.83;;;;;;;4.91;100.00;99962.06;30854425;28;20050;-74
2023/02/22 13:12:15;;;;;;;9.93;5.47;;;;;;;4.84;100.00;99964.75;30865844;28;20098;-73
2023/02/22 13:27:49;;;;;;;14.50;6.77;;;;;;;4.64;100.00;99979.69;30857933;28;20042;-76
2023/02/22 13:43:21;;;;;;;11.20;5.13;;;;;;;4.38;100.00;99991.50;30861149;28;20062;-76
2023/02/22 13:58:24;;;;;;;9.77;4.50;;;;;;;4.15;100.00;100015.97;30832030;28;20047;-74
2023/02/22 14:13:29;;;;;;;7.77;4.30;;;;;;;3.84;100.00;100027.31;30850751;28;20051;-78
2023/02/22 14:28:34;;;;;;;33.83;13.30;;;;;;;3.87;100.00;100042.69;30855257;28;20046;-75
2023/02/22 14:43:37;;;;;;;14.83;6.53;;;;;;;3.43;100.00;100052.34;30843099;28;20054;-77
2023/02/22 14:58:47;;;;;;;9.97;4.63;;;;;;;3.21;100.00;100068.63;30843454;28;20066;-73
2023/02/22 15:13:53;;;;;;;15.87;6.27;;;;;;;3.02;100.00;100086.44;30848405;28;20050;-74
2023/02/22 15:28:57;;;;;;;13.80;6.40;;;;;;;2.89;100.00;100103.91;30842891;28;20043;-76
2023/02/22 15:44:03;;;;;;;14.43;6.53;;;;;;;2.72;100.00;100142.00;30839991;28;20054;-75
2023/02/22 15:59:28;;;;;;;17.33;7.30;;;;;;;2.59;100.00;100160.25;30860675;28;20046;-76
2023/02/22 16:14:41;;;;;;;22.73;9.63;;;;;;;2.33;100.00;100185.13;30879459;28;20042;-76
2023/02/22 16:30:01;;;;;;;27.43;11.40;;;;;;;2.04;100.00;100204.56;30853696;28;20125;-83
2023/02/22 16:45:15;;;;;;;16.67;8.17;;;;;;;1.91;100.00;100216.56;30856059;28;20050;-78
2023/02/22 17:00:29;;;;;;;21.00;9.80;;;;;;;1.81;100.00;100227.88;30850097;28;20748;-77
2023/02/22 17:15:34;;;;;;;24.27;12.07;;;;;;;1.64;100.00;100224.53;30857918;28;20058;-74
2023/02/22 17:30:36;;;;;;;22.03;10.13;;;;;;;1.53;100.00;100228.91;30846222;28;20632;-75
2023/02/22 17:45:39;;;;;;;17.07;8.37;;;;;;;1.52;100.00;100240.75;30854425;28;20061;-75
2023/02/22 18:00:45;;;;;;;16.93;7.93;;;;;;;1.49;100.00;100244.13;30845830;28;20043;-76
2023/02/22 18:15:47;;;;;;;18.17;8.87;;;;;;;1.30;100.00;100246.81;30855380;28;20055;-75
2023/02/22 18:30:49;;;;;;;13.60;6.93;;;;;;;1.03;100.00;100254.66;30841040;28;20133;-76
2023/02/22 18:46:11;;;;;;;13.63;6.57;;;;;;;1.06;100.00;100279.94;30854359;28;20440;-80
2023/02/22 19:01:17;;;;;;;14.67;7.33;;;;;;;0.96;100.00;100302.63;30862023;28;20051;-79
2023/02/22 19:16:21;;;;;;;12.87;5.77;;;;;;;0.88;100.00;100310.84;30854422;28;20143;-75
2023/02/22 19:31:29;;;;;;;16.60;6.00;;;;;;;0.61;100.00;100315.97;30857565;28;20461;-76
2023/02/22 19:46:32;;;;;;;112.30;43.37;;;;;;;0.43;100.00;100343.38;30856259;28;20046;-74
2023/02/22 20:01:35;;;;;;;15.80;5.10;;;;;;;0.27;100.00;100357.47;30831927;28;20520;-75
2023/02/22 20:16:37;;;;;;;12.40;5.37;;;;;;;0.24;100.00;100358.13;30837679;28;20054;-77
2023/02/22 20:31:41;;;;;;;27.77;9.90;;;;;;;-0.07;100.00;100384.78;30868540;28;20062;-74
2023/02/22 20:46:44;;;;;;;7.70;4.63;;;;;;;-0.11;100.00;100378.56;30857827;28;20440;-75
2023/02/22 21:01:48;;;;;;;16.00;7.70;;;;;;;-0.24;100.00;100390.41;30835218;28;20675;-76
2023/02/22 21:16:51;;;;;;;14.73;7.43;;;;;;;-0.39;100.00;100384.66;30835254;28;20176;-76
2023/02/22 21:31:53;;;;;;;13.20;6.73;;;;;;;-0.35;100.00;100393.53;30840669;28;20580;-76
2023/02/22 21:46:55;;;;;;;16.07;7.80;;;;;;;-0.48;100.00;100418.69;30828042;28;20047;-76
2023/02/22 22:01:57;;;;;;;13.97;6.47;;;;;;;-0.69;100.00;100434.00;30822440;28;20058;-76
2023/02/22 22:17:00;;;;;;;12.67;7.23;;;;;;;-0.70;100.00;100435.13;30841344;28;20121;-76
2023/02/22 22:32:02;;;;;;;15.83;7.73;;;;;;;-0.80;100.00;100438.25;30841877;28;20054;-75
2023/02/22 22:47:04;;;;;;;20.27;8.50;;;;;;;-0.92;100.00;100444.34;30840639;28;20536;-76
2023/02/22 23:02:09;;;;;;;13.83;7.27;;;;;;;-0.93;100.00;100466.78;30827720;28;20114;-75
2023/02/22 23:17:14;;;;;;;16.27;7.23;;;;;;;-0.90;100.00;100481.31;30851701;28;20484;-76
2023/02/22 23:32:16;;;;;;;14.73;7.33;;;;;;;-0.91;100.00;100511.75;30850453;28;20485;-75
2023/02/22 23:47:18;;;;;;;17.83;8.50;;;;;;;-1.15;100.00;100523.91;30831248;28;20042;-76
